sensor_id;sensor_type;location;lat;lon;timestamp;temperature;humidity
32965;DHT22;19317;48.226;11.686;2023-04-24T00:00:52;10.70;99.90
32965;DHT22;19317;48.226;11.686;2023-04-24T00:05:42;10.60;99.90
32965;DHT22;19317;48.226;11.686;2023-04-24T00:10:33;10.80;99.90
32965;DHT22;19317;48.226;11.686;2023-04-24T00:15:23;10.80;99.90
32965;DHT22;19317;48.226;11.686;2023-04-24T00:20:14;10.80;99.90
32965;DHT22;19317;48.226;11.686;2023-04-24T00:25:04;11.10;99.90
32965;DHT22;19317;48.226;11.686;2023-04-24T00:29:55;10.80;99.90
32965;DHT22;19317;48.226;11.686;2023-04-24T00:34:45;10.80;99.90
32965;DHT22;19317;48.226;11.686;2023-04-24T00:39:36;10.90;99.90
32965;DHT22;19317;48.226;11.686;2023-04-24T00:44:26;10.90;99.90
32965;DHT22;19317;48.226;11.686;2023-04-24T00:49:21;10.90;99.90
32965;DHT22;19317;48.226;11.686;2023-04-24T00:54:12;10.90;99.90
32965;DHT22;19317;48.226;11.686;2023-04-24T00:59:03;10.70;99.90
32965;DHT22;19317;48.226;11.686;2023-04-24T01:03:54;10.70;99.90
32965;DHT22;19317;48.226;11.686;2023-04-24T01:08:46;10.50;99.90
32965;DHT22;19317;48.226;11.686;2023-04-24T01:13:38;10.60;99.90
32965;DHT22;19317;48.226;11.686;2023-04-24T01:18:28;10.50;99.90
32965;DHT22;19317;48.226;11.686;2023-04-24T01:23:19;10.50;99.90
32965;DHT22;19317;48.226;11.686;2023-04-24T01:28:09;10.30;99.90
32965;DHT22;19317;48.226;11.686;2023-04-24T01:33:00;10.30;99.90
32965;DHT22;19317;48.226;11.686;2023-04-24T01:37:51;10.40;99.90
32965;DHT22;19317;48.226;11.686;2023-04-24T01:42:41;10.30;99.90
32965;DHT22;19317;48.226;11.686;2023-04-24T01:47:32;10.20;99.90
32965;DHT22;19317;48.226;11.686;2023-04-24T01:52:23;10.30;99.90
32965;DHT22;19317;48.226;11.686;2023-04-24T01:57:14;10.20;99.90
32965;DHT22;19317;48.226;11.686;2023-04-24T02:02:04;10.40;99.90
32965;DHT22;19317;48.226;11.686;2023-04-24T02:06:55;10.20;99.90
32965;DHT22;19317;48.226;11.686;2023-04-24T02:11:45;10.20;99.90
32965;DHT22;19317;48.226;11.686;2023-04-24T02:16:36;10.20;99.90
32965;DHT22;19317;48.226;11.686;2023-04-24T02:21:26;10.10;99.90
32965;DHT22;19317;48.226;11.686;2023-04-24T02:26:17;10.20;99.90
32965;DHT22;19317;48.226;11.686;2023-04-24T02:31:07;10.10;99.90
32965;DHT22;19317;48.226;11.686;2023-04-24T02:35:58;10.00;99.90
32965;DHT22;19317;48.226;11.686;2023-04-24T02:40:48;10.00;99.90
32965;DHT22;19317;48.226;11.686;2023-04-24T02:45:39;10.00;99.90
32965;DHT22;19317;48.226;11.686;2023-04-24T02:50:29;10.00;99.90
32965;DHT22;19317;48.226;11.686;2023-04-24T02:55:19;9.90;99.90
32965;DHT22;19317;48.226;11.686;2023-04-24T03:00:10;9.90;99.90
32965;DHT22;19317;48.226;11.686;2023-04-24T03:05:01;9.90;99.90
32965;DHT22;19317;48.226;11.686;2023-04-24T03:09:52;9.90;99.90
32965;DHT22;19317;48.226;11.686;2023-04-24T03:14:42;9.80;99.90
32965;DHT22;19317;48.226;11.686;2023-04-24T03:19:32;9.70;99.90
32965;DHT22;19317;48.226;11.686;2023-04-24T03:24:23;9.60;99.90
32965;DHT22;19317;48.226;11.686;2023-04-24T03:29:13;9.70;99.90
32965;DHT22;19317;48.226;11.686;2023-04-24T03:34:04;9.60;99.90
32965;DHT22;19317;48.226;11.686;2023-04-24T03:38:54;9.60;99.90
32965;DHT22;19317;48.226;11.686;2023-04-24T03:43:45;9.60;99.90
32965;DHT22;19317;48.226;11.686;2023-04-24T03:48:35;9.50;99.90
32965;DHT22;19317;48.226;11.686;2023-04-24T03:53:26;9.50;99.90
32965;DHT22;19317;48.226;11.686;2023-04-24T03:58:16;9.60;99.90
32965;DHT22;19317;48.226;11.686;2023-04-24T04:03:07;9.50;99.90
32965;DHT22;19317;48.226;11.686;2023-04-24T04:07:57;9.40;99.90
32965;DHT22;19317;48.226;11.686;2023-04-24T04:12:48;9.50;99.90
32965;DHT22;19317;48.226;11.686;2023-04-24T04:17:38;9.60;99.90
32965;DHT22;19317;48.226;11.686;2023-04-24T04:22:28;9.70;99.90
32965;DHT22;19317;48.226;11.686;2023-04-24T04:27:19;9.80;99.90
32965;DHT22;19317;48.226;11.686;2023-04-24T04:32:10;9.80;99.90
32965;DHT22;19317;48.226;11.686;2023-04-24T04:37:00;9.70;99.90
32965;DHT22;19317;48.226;11.686;2023-04-24T04:41:51;9.70;99.90
32965;DHT22;19317;48.226;11.686;2023-04-24T04:46:41;9.80;99.90
32965;DHT22;19317;48.226;11.686;2023-04-24T04:51:32;9.80;99.90
32965;DHT22;19317;48.226;11.686;2023-04-24T04:56:22;9.70;99.90
32965;DHT22;19317;48.226;11.686;2023-04-24T05:01:13;9.80;99.90
32965;DHT22;19317;48.226;11.686;2023-04-24T05:06:04;9.70;99.90
32965;DHT22;19317;48.226;11.686;2023-04-24T05:10:55;9.70;99.90
32965;DHT22;19317;48.226;11.686;2023-04-24T05:15:45;9.70;99.90
32965;DHT22;19317;48.226;11.686;2023-04-24T05:20:36;9.70;99.90
32965;DHT22;19317;48.226;11.686;2023-04-24T05:25:26;9.70;99.90
32965;DHT22;19317;48.226;11.686;2023-04-24T05:30:17;9.70;99.90
32965;DHT22;19317;48.226;11.686;2023-04-24T05:35:07;9.70;99.90
32965;DHT22;19317;48.226;11.686;2023-04-24T05:39:58;9.70;99.90
32965;DHT22;19317;48.226;11.686;2023-04-24T05:44:48;9.80;99.90
32965;DHT22;19317;48.226;11.686;2023-04-24T05:49:39;9.70;99.90
32965;DHT22;19317;48.226;11.686;2023-04-24T05:54:29;9.80;99.90
32965;DHT22;19317;48.226;11.686;2023-04-24T05:59:20;9.70;99.90
32965;DHT22;19317;48.226;11.686;2023-04-24T06:04:12;9.80;99.90
32965;DHT22;19317;48.226;11.686;2023-04-24T06:09:02;9.90;99.90
32965;DHT22;19317;48.226;11.686;2023-04-24T06:13:53;9.90;99.90
32965;DHT22;19317;48.226;11.686;2023-04-24T06:18:43;9.90;99.90
32965;DHT22;19317;48.226;11.686;2023-04-24T06:23:33;9.90;99.90
32965;DHT22;19317;48.226;11.686;2023-04-24T06:28:24;10.00;99.90
32965;DHT22;19317;48.226;11.686;2023-04-24T06:33:15;10.10;99.90
32965;DHT22;19317;48.226;11.686;2023-04-24T06:38:06;10.10;99.90
32965;DHT22;19317;48.226;11.686;2023-04-24T06:42:56;10.10;99.90
32965;DHT22;19317;48.226;11.686;2023-04-24T06:47:47;10.20;99.90
32965;DHT22;19317;48.226;11.686;2023-04-24T06:52:37;10.20;99.90
32965;DHT22;19317;48.226;11.686;2023-04-24T06:57:28;10.30;99.90
32965;DHT22;19317;48.226;11.686;2023-04-24T07:02:18;10.30;99.90
32965;DHT22;19317;48.226;11.686;2023-04-24T07:07:09;10.30;99.90
32965;DHT22;19317;48.226;11.686;2023-04-24T07:11:59;10.40;99.90
32965;DHT22;19317;48.226;11.686;2023-04-24T07:16:50;10.60;99.90
32965;DHT22;19317;48.226;11.686;2023-04-24T07:21:40;10.80;99.90
32965;DHT22;19317;48.226;11.686;2023-04-24T07:26:31;10.80;99.90
32965;DHT22;19317;48.226;11.686;2023-04-24T07:31:22;10.90;99.90
32965;DHT22;19317;48.226;11.686;2023-04-24T07:36:12;10.90;99.90
32965;DHT22;19317;48.226;11.686;2023-04-24T07:41:04;11.00;99.90
32965;DHT22;19317;48.226;11.686;2023-04-24T07:45:54;11.00;99.90
32965;DHT22;19317;48.226;11.686;2023-04-24T07:50:45;11.20;99.90
32965;DHT22;19317;48.226;11.686;2023-04-24T07:55:35;11.00;99.90
32965;DHT22;19317;48.226;11.686;2023-04-24T08:00:26;11.20;99.90
32965;DHT22;19317;48.226;11.686;2023-04-24T08:05:16;10.90;99.90
32965;DHT22;19317;48.226;11.686;2023-04-24T08:10:07;11.00;99.90
32965;DHT22;19317;48.226;11.686;2023-04-24T08:14:58;10.90;99.90
32965;DHT22;19317;48.226;11.686;2023-04-24T08:19:48;11.10;99.90
32965;DHT22;19317;48.226;11.686;2023-04-24T08:24:39;11.20;99.90
32965;DHT22;19317;48.226;11.686;2023-04-24T08:29:29;11.30;99.90
32965;DHT22;19317;48.226;11.686;2023-04-24T08:34:20;11.20;99.90
32965;DHT22;19317;48.226;11.686;2023-04-24T08:39:10;11.10;99.90
32965;DHT22;19317;48.226;11.686;2023-04-24T08:44:02;11.10;99.90
32965;DHT22;19317;48.226;11.686;2023-04-24T08:48:52;10.70;99.90
32965;DHT22;19317;48.226;11.686;2023-04-24T08:53:43;10.30;99.90
32965;DHT22;19317;48.226;11.686;2023-04-24T08:58:35;10.20;99.90
32965;DHT22;19317;48.226;11.686;2023-04-24T09:03:27;10.30;99.90
32965;DHT22;19317;48.226;11.686;2023-04-24T09:08:19;10.40;99.90
32965;DHT22;19317;48.226;11.686;2023-04-24T09:13:13;10.40;99.90
32965;DHT22;19317;48.226;11.686;2023-04-24T09:18:04;10.40;99.90
32965;DHT22;19317;48.226;11.686;2023-04-24T09:22:55;10.60;99.90
32965;DHT22;19317;48.226;11.686;2023-04-24T09:27:46;10.70;99.90
32965;DHT22;19317;48.226;11.686;2023-04-24T09:32:37;10.70;99.90
32965;DHT22;19317;48.226;11.686;2023-04-24T09:37:28;10.90;99.90
32965;DHT22;19317;48.226;11.686;2023-04-24T09:42:19;11.20;99.90
32965;DHT22;19317;48.226;11.686;2023-04-24T09:47:09;11.10;99.90
32965;DHT22;19317;48.226;11.686;2023-04-24T09:52:07;11.20;99.90
32965;DHT22;19317;48.226;11.686;2023-04-24T09:56:58;11.30;99.90
32965;DHT22;19317;48.226;11.686;2023-04-24T10:01:49;11.20;99.90
32965;DHT22;19317;48.226;11.686;2023-04-24T10:06:42;11.30;99.90
32965;DHT22;19317;48.226;11.686;2023-04-24T10:11:33;11.30;99.90
32965;DHT22;19317;48.226;11.686;2023-04-24T10:16:25;11.40;99.90
32965;DHT22;19317;48.226;11.686;2023-04-24T10:21:17;11.50;99.90
32965;DHT22;19317;48.226;11.686;2023-04-24T10:26:09;11.70;99.90
32965;DHT22;19317;48.226;11.686;2023-04-24T10:31:00;11.50;99.90
32965;DHT22;19317;48.226;11.686;2023-04-24T10:35:51;11.60;99.90
32965;DHT22;19317;48.226;11.686;2023-04-24T10:40:42;11.70;99.90
32965;DHT22;19317;48.226;11.686;2023-04-24T10:45:33;12.00;99.90
32965;DHT22;19317;48.226;11.686;2023-04-24T10:50:25;12.00;99.90
32965;DHT22;19317;48.226;11.686;2023-04-24T10:55:15;12.20;99.90
32965;DHT22;19317;48.226;11.686;2023-04-24T11:00:19;12.20;99.90
32965;DHT22;19317;48.226;11.686;2023-04-24T11:05:10;12.20;99.90
32965;DHT22;19317;48.226;11.686;2023-04-24T11:10:00;10.20;99.90
32965;DHT22;19317;48.226;11.686;2023-04-24T11:19:50;9.40;99.90
32965;DHT22;19317;48.226;11.686;2023-04-24T11:34:50;10.10;99.90
32965;DHT22;19317;48.226;11.686;2023-04-24T11:39:41;10.60;99.90
32965;DHT22;19317;48.226;11.686;2023-04-24T11:44:31;10.80;99.90
32965;DHT22;19317;48.226;11.686;2023-04-24T11:49:24;10.90;99.90
32965;DHT22;19317;48.226;11.686;2023-04-24T11:54:14;11.00;99.90
32965;DHT22;19317;48.226;11.686;2023-04-24T11:59:04;11.20;99.90
32965;DHT22;19317;48.226;11.686;2023-04-24T12:03:59;11.70;99.90
32965;DHT22;19317;48.226;11.686;2023-04-24T12:08:52;11.80;99.90
32965;DHT22;19317;48.226;11.686;2023-04-24T12:13:43;11.90;99.90
32965;DHT22;19317;48.226;11.686;2023-04-24T12:18:33;12.10;99.90
32965;DHT22;19317;48.226;11.686;2023-04-24T12:23:34;12.20;99.90
32965;DHT22;19317;48.226;11.686;2023-04-24T12:28:35;12.10;99.90
32965;DHT22;19317;48.226;11.686;2023-04-24T12:33:25;12.10;99.90
32965;DHT22;19317;48.226;11.686;2023-04-24T12:38:16;12.50;99.90
32965;DHT22;19317;48.226;11.686;2023-04-24T12:48:04;13.10;99.90
32965;DHT22;19317;48.226;11.686;2023-04-24T12:52:54;13.60;99.90
32965;DHT22;19317;48.226;11.686;2023-04-24T12:57:45;13.20;99.90
32965;DHT22;19317;48.226;11.686;2023-04-24T13:02:35;13.40;99.90
32965;DHT22;19317;48.226;11.686;2023-04-24T13:07:26;13.10;99.90
32965;DHT22;19317;48.226;11.686;2023-04-24T13:12:17;13.00;99.90
32965;DHT22;19317;48.226;11.686;2023-04-24T13:17:08;12.60;99.90
32965;DHT22;19317;48.226;11.686;2023-04-24T13:21:58;12.60;99.90
32965;DHT22;19317;48.226;11.686;2023-04-24T13:26:49;12.80;99.90
32965;DHT22;19317;48.226;11.686;2023-04-24T13:31:39;12.70;99.90
32965;DHT22;19317;48.226;11.686;2023-04-24T13:36:30;12.80;99.90
32965;DHT22;19317;48.226;11.686;2023-04-24T13:41:20;12.90;99.90
32965;DHT22;19317;48.226;11.686;2023-04-24T13:46:11;13.00;99.90
32965;DHT22;19317;48.226;11.686;2023-04-24T13:51:01;12.90;99.90
32965;DHT22;19317;48.226;11.686;2023-04-24T13:55:52;13.00;99.90
32965;DHT22;19317;48.226;11.686;2023-04-24T14:00:42;13.20;99.90
32965;DHT22;19317;48.226;11.686;2023-04-24T14:05:33;13.50;99.90
32965;DHT22;19317;48.226;11.686;2023-04-24T14:10:23;13.20;99.90
32965;DHT22;19317;48.226;11.686;2023-04-24T14:15:14;13.40;99.90
32965;DHT22;19317;48.226;11.686;2023-04-24T14:20:05;13.30;99.90
32965;DHT22;19317;48.226;11.686;2023-04-24T14:24:56;13.50;99.90
32965;DHT22;19317;48.226;11.686;2023-04-24T14:29:46;13.20;99.90
32965;DHT22;19317;48.226;11.686;2023-04-24T14:34:36;13.00;99.90
32965;DHT22;19317;48.226;11.686;2023-04-24T14:39:27;12.90;99.90
32965;DHT22;19317;48.226;11.686;2023-04-24T14:44:18;13.50;99.90
32965;DHT22;19317;48.226;11.686;2023-04-24T14:49:09;13.30;99.90
32965;DHT22;19317;48.226;11.686;2023-04-24T14:53:59;13.40;99.90
32965;DHT22;19317;48.226;11.686;2023-04-24T14:58:50;13.40;99.90
32965;DHT22;19317;48.226;11.686;2023-04-24T15:03:40;13.30;99.90
32965;DHT22;19317;48.226;11.686;2023-04-24T15:08:30;13.00;99.90
32965;DHT22;19317;48.226;11.686;2023-04-24T15:13:21;13.10;99.90
32965;DHT22;19317;48.226;11.686;2023-04-24T15:18:11;13.20;99.90
32965;DHT22;19317;48.226;11.686;2023-04-24T15:23:02;13.20;99.90
32965;DHT22;19317;48.226;11.686;2023-04-24T15:27:52;12.80;99.90
32965;DHT22;19317;48.226;11.686;2023-04-24T15:32:43;12.60;99.90
32965;DHT22;19317;48.226;11.686;2023-04-24T15:37:33;12.60;99.90
32965;DHT22;19317;48.226;11.686;2023-04-24T15:42:24;12.60;99.90
32965;DHT22;19317;48.226;11.686;2023-04-24T15:47:14;12.50;99.90
32965;DHT22;19317;48.226;11.686;2023-04-24T15:52:05;12.70;99.90
32965;DHT22;19317;48.226;11.686;2023-04-24T15:56:55;12.50;99.90
32965;DHT22;19317;48.226;11.686;2023-04-24T16:01:46;12.60;99.90
32965;DHT22;19317;48.226;11.686;2023-04-24T16:06:36;12.50;99.90
32965;DHT22;19317;48.226;11.686;2023-04-24T16:11:27;12.60;99.90
32965;DHT22;19317;48.226;11.686;2023-04-24T16:16:17;12.90;99.90
32965;DHT22;19317;48.226;11.686;2023-04-24T16:21:08;12.90;99.90
32965;DHT22;19317;48.226;11.686;2023-04-24T16:25:58;12.40;99.90
32965;DHT22;19317;48.226;11.686;2023-04-24T16:30:48;12.30;99.90
32965;DHT22;19317;48.226;11.686;2023-04-24T16:35:39;12.30;99.90
32965;DHT22;19317;48.226;11.686;2023-04-24T16:40:30;12.30;99.90
32965;DHT22;19317;48.226;11.686;2023-04-24T16:45:20;12.20;99.90
32965;DHT22;19317;48.226;11.686;2023-04-24T16:50:11;12.10;99.90
32965;DHT22;19317;48.226;11.686;2023-04-24T16:55:01;12.20;99.90
32965;DHT22;19317;48.226;11.686;2023-04-24T16:59:51;12.20;99.90
32965;DHT22;19317;48.226;11.686;2023-04-24T17:04:42;12.30;99.90
32965;DHT22;19317;48.226;11.686;2023-04-24T17:09:32;12.20;99.90
32965;DHT22;19317;48.226;11.686;2023-04-24T17:14:23;12.20;99.90
32965;DHT22;19317;48.226;11.686;2023-04-24T17:19:13;12.20;99.90
32965;DHT22;19317;48.226;11.686;2023-04-24T17:24:04;12.20;99.90
32965;DHT22;19317;48.226;11.686;2023-04-24T17:28:55;12.20;99.90
32965;DHT22;19317;48.226;11.686;2023-04-24T17:33:45;12.00;99.90
32965;DHT22;19317;48.226;11.686;2023-04-24T17:38:35;12.00;99.90
32965;DHT22;19317;48.226;11.686;2023-04-24T17:43:26;11.80;99.90
32965;DHT22;19317;48.226;11.686;2023-04-24T17:48:19;11.70;99.90
32965;DHT22;19317;48.226;11.686;2023-04-24T17:53:10;11.70;99.90
32965;DHT22;19317;48.226;11.686;2023-04-24T17:58:00;11.70;99.90
32965;DHT22;19317;48.226;11.686;2023-04-24T18:02:51;11.40;99.90
32965;DHT22;19317;48.226;11.686;2023-04-24T18:07:41;11.40;99.90
32965;DHT22;19317;48.226;11.686;2023-04-24T18:12:32;11.30;99.90
32965;DHT22;19317;48.226;11.686;2023-04-24T18:17:22;11.20;99.90
32965;DHT22;19317;48.226;11.686;2023-04-24T18:22:13;11.10;99.90
32965;DHT22;19317;48.226;11.686;2023-04-24T18:27:03;11.00;99.90
32965;DHT22;19317;48.226;11.686;2023-04-24T18:31:54;10.90;99.90
32965;DHT22;19317;48.226;11.686;2023-04-24T18:36:44;11.00;99.90
32965;DHT22;19317;48.226;11.686;2023-04-24T18:41:34;10.80;99.90
32965;DHT22;19317;48.226;11.686;2023-04-24T18:46:25;10.70;99.90
32965;DHT22;19317;48.226;11.686;2023-04-24T18:51:16;10.60;99.90
32965;DHT22;19317;48.226;11.686;2023-04-24T18:56:06;10.50;99.90
32965;DHT22;19317;48.226;11.686;2023-04-24T19:00:56;10.30;99.90
32965;DHT22;19317;48.226;11.686;2023-04-24T19:05:47;10.20;99.90
32965;DHT22;19317;48.226;11.686;2023-04-24T19:10:37;10.20;99.90
32965;DHT22;19317;48.226;11.686;2023-04-24T19:15:28;10.00;99.90
32965;DHT22;19317;48.226;11.686;2023-04-24T19:20:18;9.90;99.90
32965;DHT22;19317;48.226;11.686;2023-04-24T19:25:09;9.90;99.90
32965;DHT22;19317;48.226;11.686;2023-04-24T19:29:59;9.90;99.90
32965;DHT22;19317;48.226;11.686;2023-04-24T19:34:50;9.80;99.90
32965;DHT22;19317;48.226;11.686;2023-04-24T19:39:40;9.70;99.90
32965;DHT22;19317;48.226;11.686;2023-04-24T19:44:31;9.90;99.90
32965;DHT22;19317;48.226;11.686;2023-04-24T19:49:21;10.10;99.90
32965;DHT22;19317;48.226;11.686;2023-04-24T19:54:11;10.20;99.90
32965;DHT22;19317;48.226;11.686;2023-04-24T19:59:02;10.20;99.90
32965;DHT22;19317;48.226;11.686;2023-04-24T20:03:52;9.90;99.90
32965;DHT22;19317;48.226;11.686;2023-04-24T20:08:43;10.10;99.90
32965;DHT22;19317;48.226;11.686;2023-04-24T20:13:33;10.10;99.90
32965;DHT22;19317;48.226;11.686;2023-04-24T20:18:24;10.00;99.90
32965;DHT22;19317;48.226;11.686;2023-04-24T20:23:14;9.90;99.90
32965;DHT22;19317;48.226;11.686;2023-04-24T20:28:04;9.40;99.90
32965;DHT22;19317;48.226;11.686;2023-04-24T20:32:55;9.50;99.90
32965;DHT22;19317;48.226;11.686;2023-04-24T20:37:45;9.50;99.90
32965;DHT22;19317;48.226;11.686;2023-04-24T20:42:36;9.60;99.90
32965;DHT22;19317;48.226;11.686;2023-04-24T20:47:26;9.40;99.90
32965;DHT22;19317;48.226;11.686;2023-04-24T20:52:17;9.30;99.90
32965;DHT22;19317;48.226;11.686;2023-04-24T20:57:08;9.20;99.90
32965;DHT22;19317;48.226;11.686;2023-04-24T21:01:58;9.10;99.90
32965;DHT22;19317;48.226;11.686;2023-04-24T21:06:49;9.10;99.90
32965;DHT22;19317;48.226;11.686;2023-04-24T21:11:39;8.90;99.90
32965;DHT22;19317;48.226;11.686;2023-04-24T21:16:30;8.70;99.90
32965;DHT22;19317;48.226;11.686;2023-04-24T21:21:20;8.80;99.90
32965;DHT22;19317;48.226;11.686;2023-04-24T21:26:11;9.00;99.90
32965;DHT22;19317;48.226;11.686;2023-04-24T21:31:01;9.30;99.90
32965;DHT22;19317;48.226;11.686;2023-04-24T21:35:52;9.10;99.90
32965;DHT22;19317;48.226;11.686;2023-04-24T21:40:42;8.60;99.90
32965;DHT22;19317;48.226;11.686;2023-04-24T21:45:33;8.10;99.90
32965;DHT22;19317;48.226;11.686;2023-04-24T21:50:23;8.60;99.90
32965;DHT22;19317;48.226;11.686;2023-04-24T21:55:14;8.70;99.90
32965;DHT22;19317;48.226;11.686;2023-04-24T22:00:05;8.80;99.90
32965;DHT22;19317;48.226;11.686;2023-04-24T22:04:56;9.20;99.90
32965;DHT22;19317;48.226;11.686;2023-04-24T22:09:46;8.90;99.90
32965;DHT22;19317;48.226;11.686;2023-04-24T22:14:37;8.70;99.90
32965;DHT22;19317;48.226;11.686;2023-04-24T22:19:27;9.10;99.90
32965;DHT22;19317;48.226;11.686;2023-04-24T22:24:18;9.10;99.90
32965;DHT22;19317;48.226;11.686;2023-04-24T22:29:08;8.90;99.90
32965;DHT22;19317;48.226;11.686;2023-04-24T22:33:59;9.10;99.90
32965;DHT22;19317;48.226;11.686;2023-04-24T22:38:49;9.20;99.90
32965;DHT22;19317;48.226;11.686;2023-04-24T22:43:40;8.60;99.90
32965;DHT22;19317;48.226;11.686;2023-04-24T22:48:30;8.50;99.90
32965;DHT22;19317;48.226;11.686;2023-04-24T22:53:21;9.00;99.90
32965;DHT22;19317;48.226;11.686;2023-04-24T22:58:11;8.50;99.90
32965;DHT22;19317;48.226;11.686;2023-04-24T23:03:02;8.60;99.90
32965;DHT22;19317;48.226;11.686;2023-04-24T23:07:52;8.80;99.90
32965;DHT22;19317;48.226;11.686;2023-04-24T23:12:43;8.50;99.90
32965;DHT22;19317;48.226;11.686;2023-04-24T23:17:33;8.60;99.90
32965;DHT22;19317;48.226;11.686;2023-04-24T23:22:24;8.50;99.90
32965;DHT22;19317;48.226;11.686;2023-04-24T23:27:14;8.40;99.90
32965;DHT22;19317;48.226;11.686;2023-04-24T23:32:05;8.50;99.90
32965;DHT22;19317;48.226;11.686;2023-04-24T23:36:55;8.50;99.90
32965;DHT22;19317;48.226;11.686;2023-04-24T23:41:45;8.30;99.90
32965;DHT22;19317;48.226;11.686;2023-04-24T23:46:36;8.20;99.90
32965;DHT22;19317;48.226;11.686;2023-04-24T23:51:26;8.20;99.90
32965;DHT22;19317;48.226;11.686;2023-04-24T23:56:17;8.30;99.90
